createdAt,value
2023-04-17T00:00:34.766Z,13.30
2023-04-17T00:03:03.539Z,13.02
2023-04-17T00:05:33.829Z,13.30
2023-04-17T00:08:02.408Z,13.77
2023-04-17T00:10:30.795Z,12.70
2023-04-17T00:12:58.989Z,13.50
2023-04-17T00:15:27.302Z,15.27
2023-04-17T00:17:56.917Z,13.55
2023-04-17T00:20:25.137Z,13.65
2023-04-17T00:22:53.365Z,14.07
2023-04-17T00:25:21.672Z,18.02
2023-04-17T00:27:50.636Z,15.02
2023-04-17T00:30:19.198Z,14.55
2023-04-17T00:32:47.430Z,14.77
2023-04-17T00:35:17.364Z,15.73
2023-04-17T00:37:45.548Z,15.18
2023-04-17T00:40:14.461Z,14.60
2023-04-17T00:42:42.674Z,13.75
2023-04-17T00:45:11.875Z,16.67
2023-04-17T00:47:40.386Z,15.27
2023-04-17T00:50:09.812Z,14.95
2023-04-17T00:52:39.450Z,14.45
2023-04-17T00:55:08.904Z,15.32
2023-04-17T00:57:37.354Z,13.77
2023-04-17T01:00:08.483Z,13.95
2023-04-17T01:02:37.598Z,12.35
2023-04-17T01:05:07.002Z,12.95
2023-04-17T01:07:35.349Z,12.55
2023-04-17T01:10:05.608Z,25.77
2023-04-17T01:12:33.856Z,11.77
2023-04-17T01:15:02.425Z,11.88
2023-04-17T01:17:31.348Z,12.23
2023-04-17T01:19:59.828Z,13.20
2023-04-17T01:22:28.026Z,11.45
2023-04-17T01:25:00.859Z,11.48
2023-04-17T01:27:35.283Z,10.82
2023-04-17T01:30:03.826Z,11.65
2023-04-17T01:32:36.343Z,13.68
2023-04-17T01:35:05.227Z,11.98
2023-04-17T01:37:33.425Z,10.57
2023-04-17T01:40:04.937Z,11.57
2023-04-17T01:42:33.147Z,11.63
2023-04-17T01:45:01.310Z,11.35
2023-04-17T01:47:29.662Z,11.18
2023-04-17T01:49:58.059Z,11.43
2023-04-17T01:52:26.364Z,11.68
2023-04-17T01:54:54.644Z,12.48
2023-04-17T01:57:24.266Z,12.68
2023-04-17T01:59:52.502Z,14.50
2023-04-17T02:02:21.001Z,16.48
2023-04-17T02:04:49.389Z,19.42
2023-04-17T02:07:17.619Z,17.95
2023-04-17T02:09:45.948Z,17.60
2023-04-17T02:12:14.175Z,17.77
2023-04-17T02:14:43.831Z,17.10
2023-04-17T02:17:12.026Z,17.65
2023-04-17T02:19:40.257Z,18.67
2023-04-17T02:22:08.514Z,18.42
2023-04-17T02:24:36.704Z,18.73
2023-04-17T02:27:05.006Z,17.75
2023-04-17T02:29:33.382Z,18.98
2023-04-17T02:32:03.036Z,20.73
2023-04-17T02:34:32.134Z,18.63
2023-04-17T02:37:00.745Z,18.70
2023-04-17T02:39:29.107Z,19.35
2023-04-17T02:41:57.560Z,17.90
2023-04-17T02:44:25.904Z,17.98
2023-04-17T02:46:56.571Z,17.65
2023-04-17T02:49:26.717Z,15.60
2023-04-17T02:51:55.473Z,15.32
2023-04-17T02:54:23.814Z,14.85
2023-04-17T02:56:53.270Z,15.02
2023-04-17T02:59:21.705Z,12.85
2023-04-17T03:01:51.005Z,13.48
2023-04-17T03:04:22.227Z,13.55
2023-04-17T03:06:52.701Z,13.15
2023-04-17T03:09:22.441Z,11.85
2023-04-17T03:11:50.668Z,12.45
2023-04-17T03:14:18.907Z,11.88
2023-04-17T03:16:47.347Z,12.38
2023-04-17T03:19:15.818Z,10.13
2023-04-17T03:21:44.047Z,11.60
2023-04-17T03:24:13.711Z,12.50
2023-04-17T03:26:42.433Z,13.13
2023-04-17T03:29:17.256Z,14.05
2023-04-17T03:31:45.571Z,10.68
2023-04-17T03:34:13.876Z,9.80
2023-04-17T03:36:42.570Z,11.10
2023-04-17T03:39:11.300Z,10.45
2023-04-17T03:41:41.155Z,9.07
2023-04-17T03:44:10.212Z,8.45
2023-04-17T03:46:38.933Z,10.85
2023-04-17T03:49:07.362Z,8.70
2023-04-17T03:51:35.784Z,8.85
2023-04-17T03:54:12.175Z,9.00
2023-04-17T03:56:43.373Z,8.85
2023-04-17T03:59:12.638Z,9.23
2023-04-17T04:01:46.027Z,10.13
2023-04-17T04:04:19.694Z,13.10
2023-04-17T04:06:49.484Z,9.80
2023-04-17T04:09:21.441Z,10.68
2023-04-17T04:11:51.162Z,10.35
2023-04-17T04:14:19.556Z,9.95
2023-04-17T04:16:49.861Z,9.70
2023-04-17T04:19:18.237Z,14.60
2023-04-17T04:21:46.531Z,10.48
2023-04-17T04:24:16.143Z,8.63
2023-04-17T04:26:47.407Z,9.27
2023-04-17T04:29:18.033Z,9.80
2023-04-17T04:31:55.644Z,9.05
2023-04-17T04:34:30.142Z,9.52
2023-04-17T04:36:58.371Z,9.55
2023-04-17T04:39:47.351Z,9.75
2023-04-17T04:42:22.589Z,9.70
2023-04-17T04:45:02.387Z,13.95
2023-04-17T04:47:33.082Z,10.38
2023-04-17T04:50:01.481Z,9.65
2023-04-17T04:52:29.770Z,10.30
2023-04-17T04:55:01.882Z,11.18
2023-04-17T04:57:31.983Z,10.38
2023-04-17T05:00:06.447Z,9.98
2023-04-17T05:02:39.863Z,9.88
2023-04-17T05:05:10.849Z,9.65
2023-04-17T05:07:39.094Z,12.77
2023-04-17T05:10:11.477Z,10.25
2023-04-17T05:12:44.555Z,15.05
2023-04-17T05:15:15.624Z,11.80
2023-04-17T05:17:44.975Z,11.57
2023-04-17T05:20:15.532Z,11.15
2023-04-17T05:22:50.658Z,14.95
2023-04-17T05:25:19.801Z,21.23
2023-04-17T05:27:48.852Z,17.83
2023-04-17T05:30:20.048Z,20.33
2023-04-17T05:32:54.485Z,21.45
2023-04-17T05:35:42.132Z,20.00
2023-04-17T05:38:10.436Z,18.45
2023-04-17T05:40:38.745Z,18.70
2023-04-17T05:43:09.131Z,16.88
2023-04-17T05:45:41.488Z,17.23
2023-04-17T05:48:10.957Z,16.08
2023-04-17T05:50:39.305Z,15.60
2023-04-17T05:53:08.887Z,18.92
2023-04-17T05:55:43.803Z,19.70
2023-04-17T06:00:47.002Z,15.90
2023-04-17T06:03:18.812Z,16.30
2023-04-17T06:05:49.638Z,15.52
2023-04-17T06:08:17.851Z,14.10
2023-04-17T06:10:46.673Z,13.48
2023-04-17T06:13:14.881Z,14.05
2023-04-17T06:15:48.603Z,12.77
2023-04-17T06:18:17.673Z,15.20
2023-04-17T06:20:46.169Z,15.32
2023-04-17T06:23:14.385Z,17.27
2023-04-17T06:25:43.606Z,14.85
2023-04-17T06:28:11.892Z,13.65
2023-04-17T06:30:40.339Z,12.20
2023-04-17T06:33:10.811Z,14.55
2023-04-17T06:35:39.333Z,14.85
2023-04-17T06:38:30.489Z,12.55
2023-04-17T06:40:58.920Z,15.32
2023-04-17T06:43:27.180Z,14.30
2023-04-17T06:45:55.529Z,10.63
2023-04-17T06:48:25.180Z,13.02
2023-04-17T06:50:53.507Z,20.70
2023-04-17T06:53:22.054Z,13.80
2023-04-17T06:55:50.324Z,11.88
2023-04-17T06:58:18.643Z,11.45
2023-04-17T07:00:46.901Z,12.57
2023-04-17T07:03:15.272Z,11.55
2023-04-17T07:05:46.574Z,12.00
2023-04-17T07:08:16.088Z,12.38
2023-04-17T07:10:44.396Z,12.30
2023-04-17T07:13:12.634Z,11.45
2023-04-17T07:15:41.070Z,11.63
2023-04-17T07:18:09.426Z,12.65
2023-04-17T07:20:37.679Z,13.27
2023-04-17T07:23:07.274Z,12.88
2023-04-17T07:25:35.547Z,10.75
2023-04-17T07:28:04.618Z,12.73
2023-04-17T07:30:33.131Z,10.95
2023-04-17T07:33:02.049Z,11.30
2023-04-17T07:35:30.398Z,10.85
2023-04-17T07:38:01.496Z,12.68
2023-04-17T07:40:33.365Z,9.75
2023-04-17T07:43:01.547Z,10.60
2023-04-17T07:45:29.774Z,12.20
2023-04-17T07:47:58.049Z,12.73
2023-04-17T07:50:26.618Z,10.37
2023-04-17T07:52:54.954Z,11.43
2023-04-17T07:55:23.258Z,9.77
2023-04-17T07:57:53.144Z,10.73
2023-04-17T08:00:21.806Z,10.00
2023-04-17T08:02:50.258Z,12.83
2023-04-17T08:05:18.835Z,9.33
2023-04-17T08:07:47.144Z,9.07
2023-04-17T08:10:15.493Z,10.03
2023-04-17T08:12:43.946Z,10.03
2023-04-17T08:15:13.931Z,12.67
2023-04-17T08:17:42.180Z,10.57
2023-04-17T08:20:11.380Z,10.33
2023-04-17T08:22:40.752Z,11.80
2023-04-17T08:25:10.405Z,9.70
2023-04-17T08:27:39.920Z,10.90
2023-04-17T08:30:12.941Z,11.97
2023-04-17T08:32:45.886Z,9.70
2023-04-17T08:35:15.679Z,10.47
2023-04-17T08:37:46.839Z,10.77
2023-04-17T08:40:16.106Z,10.40
2023-04-17T08:42:44.333Z,10.83
2023-04-17T08:45:14.586Z,12.23
2023-04-17T08:47:45.076Z,11.03
2023-04-17T08:50:15.066Z,11.82
2023-04-17T08:52:44.193Z,13.38
2023-04-17T08:55:14.053Z,11.48
2023-04-17T08:57:58.697Z,11.25
2023-04-17T09:00:28.465Z,11.27
2023-04-17T09:03:01.135Z,13.80
2023-04-17T09:05:34.486Z,15.00
2023-04-17T09:08:12.402Z,14.70
2023-04-17T09:10:42.132Z,10.93
2023-04-17T09:13:12.296Z,9.73
2023-04-17T09:15:40.632Z,13.43
2023-04-17T09:18:25.298Z,11.20
2023-04-17T09:20:53.798Z,11.10
2023-04-17T09:23:22.829Z,12.70
2023-04-17T09:26:07.698Z,10.87
2023-04-17T09:28:37.013Z,10.13
2023-04-17T09:31:06.760Z,10.07
2023-04-17T09:33:36.369Z,10.87
2023-04-17T09:36:23.413Z,11.03
2023-04-17T09:38:51.753Z,9.95
2023-04-17T09:41:24.007Z,15.20
2023-04-17T09:43:54.943Z,15.75
2023-04-17T09:46:33.635Z,17.85
2023-04-17T09:49:10.008Z,14.38
2023-04-17T09:51:38.783Z,14.40
2023-04-17T09:54:08.033Z,18.40
2023-04-17T09:56:37.997Z,15.43
2023-04-17T09:59:07.358Z,15.30
2023-04-17T10:01:37.030Z,14.68
2023-04-17T10:04:07.755Z,14.10
2023-04-17T10:06:36.817Z,14.02
2023-04-17T10:09:05.867Z,15.02
2023-04-17T10:11:37.481Z,17.30
2023-04-17T10:14:14.999Z,13.55
2023-04-17T10:16:44.035Z,12.77
2023-04-17T10:19:27.870Z,15.30
2023-04-17T10:22:30.796Z,12.27
2023-04-17T10:25:26.747Z,11.63
2023-04-17T10:27:58.358Z,13.98
2023-04-17T10:30:50.907Z,10.63
2023-04-17T10:33:24.904Z,9.57
2023-04-17T10:35:55.404Z,11.20
2023-04-17T10:38:34.679Z,9.40
2023-04-17T10:41:05.112Z,15.38
2023-04-17T10:43:33.482Z,9.85
2023-04-17T10:46:06.682Z,9.88
2023-04-17T10:48:38.353Z,10.07
2023-04-17T10:51:42.652Z,10.97
2023-04-17T10:54:15.756Z,10.60
2023-04-17T10:56:48.338Z,10.30
2023-04-17T10:59:17.648Z,11.10
2023-04-17T11:02:01.583Z,11.57
2023-04-17T11:04:32.082Z,11.10
2023-04-17T11:07:01.955Z,10.03
2023-04-17T11:09:30.930Z,11.60
2023-04-17T11:12:02.988Z,11.60
2023-04-17T11:14:31.587Z,11.47
2023-04-17T11:16:59.937Z,10.80
2023-04-17T11:19:28.450Z,14.80
2023-04-17T11:21:58.862Z,12.57
2023-04-17T11:24:30.187Z,14.27
2023-04-17T11:27:01.184Z,14.67
2023-04-17T11:29:29.679Z,12.27
2023-04-17T11:31:59.191Z,12.87
2023-04-17T11:34:27.863Z,13.00
2023-04-17T11:36:57.557Z,14.63
2023-04-17T11:39:29.839Z,12.33
2023-04-17T11:41:58.090Z,13.17
2023-04-17T11:44:27.177Z,12.70
2023-04-17T11:46:59.497Z,12.63
2023-04-17T11:49:28.388Z,11.47
2023-04-17T11:51:59.780Z,13.90
2023-04-17T11:54:29.562Z,14.33
2023-04-17T11:57:02.819Z,14.23
2023-04-17T11:59:31.790Z,14.10
2023-04-17T12:02:00.812Z,11.93
2023-04-17T12:04:31.104Z,12.30
2023-04-17T12:06:59.826Z,14.07
2023-04-17T12:09:31.976Z,13.33
2023-04-17T12:12:01.332Z,14.90
2023-04-17T12:14:29.821Z,13.20
2023-04-17T12:16:58.237Z,12.73
2023-04-17T12:19:28.049Z,11.90
2023-04-17T12:21:56.919Z,9.77
2023-04-17T12:24:25.496Z,9.17
2023-04-17T12:26:55.118Z,11.67
2023-04-17T12:29:36.010Z,9.30
2023-04-17T12:32:11.818Z,8.43
2023-04-17T12:34:40.549Z,10.13
2023-04-17T12:37:09.099Z,8.57
2023-04-17T12:39:37.474Z,9.30
2023-04-17T12:42:07.167Z,10.60
2023-04-17T12:44:36.034Z,8.73
2023-04-17T12:47:05.389Z,9.13
2023-04-17T12:49:33.881Z,8.50
2023-04-17T12:52:03.564Z,7.53
2023-04-17T12:54:33.095Z,7.83
2023-04-17T12:57:01.589Z,7.87
2023-04-17T12:59:31.322Z,7.87
2023-04-17T13:01:59.645Z,7.97
2023-04-17T13:04:28.398Z,8.07
2023-04-17T13:06:56.809Z,7.90
2023-04-17T13:09:25.110Z,9.40
2023-04-17T13:11:53.460Z,9.40
2023-04-17T13:14:21.842Z,8.83
2023-04-17T13:16:51.754Z,8.63
2023-04-17T13:19:20.296Z,8.57
2023-04-17T13:21:48.714Z,6.93
2023-04-17T13:24:16.918Z,7.13
2023-04-17T13:26:45.431Z,6.20
2023-04-17T13:29:14.776Z,5.87
2023-04-17T13:31:44.960Z,6.23
2023-04-17T13:34:14.485Z,5.87
2023-04-17T13:36:45.060Z,5.17
2023-04-17T13:39:13.716Z,6.77
2023-04-17T13:41:42.209Z,7.20
2023-04-17T13:44:10.772Z,7.80
2023-04-17T13:46:39.103Z,5.80
2023-04-17T13:49:07.816Z,7.40
2023-04-17T13:51:37.830Z,5.57
2023-04-17T13:54:06.703Z,6.23
2023-04-17T13:56:35.014Z,6.50
2023-04-17T13:59:04.682Z,6.10
2023-04-17T14:01:32.979Z,6.07
2023-04-17T14:04:01.717Z,5.90
2023-04-17T14:06:31.233Z,5.50
2023-04-17T14:09:00.767Z,5.80
2023-04-17T14:11:29.070Z,6.00
2023-04-17T14:13:57.400Z,6.00
2023-04-17T14:16:25.676Z,5.60
2023-04-17T14:18:53.939Z,5.60
2023-04-17T14:21:23.027Z,4.30
2023-04-17T14:23:59.178Z,5.20
2023-04-17T14:26:27.613Z,5.30
2023-04-17T14:28:55.977Z,6.83
2023-04-17T14:31:24.242Z,4.90
2023-04-17T14:33:52.615Z,5.60
2023-04-17T14:36:21.010Z,5.63
2023-04-17T14:38:51.283Z,5.63
2023-04-17T14:41:21.062Z,5.23
2023-04-17T14:43:49.738Z,6.40
2023-04-17T14:46:18.246Z,5.37
2023-04-17T14:51:17.707Z,5.97
2023-04-17T14:53:45.968Z,5.63
2023-04-17T14:56:14.358Z,6.67
2023-04-17T14:58:44.260Z,5.93
2023-04-17T15:01:12.569Z,5.40
2023-04-17T15:03:41.687Z,5.43
2023-04-17T15:06:11.520Z,5.77
2023-04-17T15:08:40.462Z,5.17
2023-04-17T15:11:08.980Z,6.43
2023-04-17T15:13:37.254Z,5.37
2023-04-17T15:16:07.920Z,6.17
2023-04-17T15:18:36.246Z,6.17
2023-04-17T15:21:04.662Z,5.97
2023-04-17T15:23:34.777Z,5.63
2023-04-17T15:26:03.292Z,6.63
2023-04-17T15:28:31.874Z,5.87
2023-04-17T15:31:02.334Z,6.07
2023-04-17T15:33:32.021Z,6.33
2023-04-17T15:36:01.066Z,6.40
2023-04-17T15:38:29.275Z,6.13
2023-04-17T15:40:57.487Z,5.80
2023-04-17T15:43:26.951Z,6.23
2023-04-17T15:45:55.970Z,6.07
2023-04-17T15:48:24.485Z,6.83
2023-04-17T15:50:54.160Z,4.13
2023-04-17T15:53:22.345Z,4.00
2023-04-17T15:55:51.027Z,4.83
2023-04-17T15:58:19.780Z,4.43
2023-04-17T16:00:48.046Z,5.07
2023-04-17T16:03:16.590Z,4.80
2023-04-17T16:05:45.311Z,4.40
2023-04-17T16:08:14.853Z,4.00
2023-04-17T16:10:43.176Z,4.40
2023-04-17T16:13:11.443Z,4.30
2023-04-17T16:15:39.739Z,4.47
2023-04-17T16:18:08.132Z,5.57
2023-04-17T16:20:36.460Z,5.67
2023-04-17T16:23:04.825Z,5.30
2023-04-17T16:25:34.587Z,7.90
2023-04-17T16:28:03.375Z,8.30
2023-04-17T16:30:31.606Z,5.93
2023-04-17T16:33:03.141Z,6.00
2023-04-17T16:35:31.410Z,5.67
2023-04-17T16:38:01.486Z,5.20
2023-04-17T16:40:30.963Z,6.40
2023-04-17T16:43:01.109Z,4.90
2023-04-17T16:45:29.576Z,4.80
2023-04-17T16:47:57.873Z,4.00
2023-04-17T16:50:26.076Z,4.57
2023-04-17T16:52:54.384Z,4.43
2023-04-17T16:55:22.921Z,3.90
2023-04-17T16:57:51.138Z,3.60
2023-04-17T17:00:21.224Z,4.70
2023-04-17T17:02:49.761Z,4.47
2023-04-17T17:05:18.071Z,4.97
2023-04-17T17:07:46.381Z,3.40
2023-04-17T17:10:15.137Z,4.13
2023-04-17T17:12:43.409Z,3.67
2023-04-17T17:15:12.815Z,4.57
2023-04-17T17:17:43.142Z,5.43
2023-04-17T17:20:11.932Z,7.10
2023-04-17T17:22:40.160Z,7.00
2023-04-17T17:25:09.328Z,6.50
2023-04-17T17:27:37.560Z,6.77
2023-04-17T17:30:06.514Z,6.10
2023-04-17T17:32:34.866Z,6.63
2023-04-17T17:35:04.511Z,6.18
2023-04-17T17:37:32.849Z,5.55
2023-04-17T17:40:03.267Z,6.18
2023-04-17T17:42:31.870Z,7.10
2023-04-17T17:45:00.118Z,8.18
2023-04-17T17:47:28.455Z,7.53
2023-04-17T17:49:56.905Z,6.20
2023-04-17T17:52:26.636Z,8.40
2023-04-17T17:54:54.975Z,7.15
2023-04-17T17:57:23.193Z,6.93
2023-04-17T17:59:51.658Z,6.43
2023-04-17T18:02:20.181Z,7.40
2023-04-17T18:04:48.658Z,6.68
2023-04-17T18:07:17.087Z,8.05
2023-04-17T18:09:48.392Z,7.85
2023-04-17T18:12:18.561Z,8.05
2023-04-17T18:14:46.714Z,6.18
2023-04-17T18:17:14.888Z,7.72
2023-04-17T18:19:43.119Z,6.63
2023-04-17T18:22:11.534Z,7.25
2023-04-17T18:24:39.777Z,7.00
2023-04-17T18:27:09.464Z,14.63
2023-04-17T18:29:37.672Z,11.18
2023-04-17T18:32:06.142Z,9.63
2023-04-17T18:34:34.363Z,8.13
2023-04-17T18:37:02.543Z,9.85
2023-04-17T18:39:30.956Z,17.75
2023-04-17T18:41:59.704Z,12.40
2023-04-17T18:44:29.249Z,11.90
2023-04-17T18:46:57.574Z,12.60
2023-04-17T18:49:27.550Z,10.10
2023-04-17T18:51:55.771Z,10.02
2023-04-17T18:54:24.376Z,9.77
2023-04-17T18:56:52.575Z,10.52
2023-04-17T18:59:21.413Z,10.15
2023-04-17T19:01:51.061Z,11.35
2023-04-17T19:04:19.187Z,11.38
2023-04-17T19:06:47.497Z,10.32
2023-04-17T19:09:15.780Z,8.18
2023-04-17T19:11:44.248Z,8.25
2023-04-17T19:14:12.741Z,9.90
2023-04-17T19:16:41.093Z,9.38
2023-04-17T19:19:13.676Z,9.45
2023-04-17T19:21:42.509Z,9.00
2023-04-17T19:24:10.776Z,8.45
2023-04-17T19:26:39.485Z,8.45
2023-04-17T19:29:07.701Z,9.20
2023-04-17T19:31:36.245Z,8.23
2023-04-17T19:34:06.978Z,7.63
2023-04-17T19:36:36.586Z,8.93
2023-04-17T19:39:05.004Z,9.93
2023-04-17T19:41:33.313Z,9.23
2023-04-17T19:44:01.505Z,8.82
2023-04-17T19:46:29.848Z,10.07
2023-04-17T19:48:58.249Z,9.73
2023-04-17T19:51:26.553Z,10.70
2023-04-17T19:53:56.128Z,12.35
2023-04-17T19:56:24.463Z,13.10
2023-04-17T19:58:52.685Z,19.02
2023-04-17T20:01:20.985Z,19.83
2023-04-17T20:03:49.343Z,25.55
2023-04-17T20:06:17.646Z,33.80
2023-04-17T20:08:46.000Z,44.78
2023-04-17T20:11:17.529Z,38.72
2023-04-17T20:13:45.794Z,38.95
2023-04-17T20:16:14.098Z,37.63
2023-04-17T20:18:43.537Z,31.08
2023-04-17T20:21:12.326Z,32.83
2023-04-17T20:23:40.710Z,38.42
2023-04-17T20:26:08.939Z,37.47
2023-04-17T20:28:38.526Z,32.22
2023-04-17T20:31:06.829Z,29.60
2023-04-17T20:33:35.198Z,22.02
2023-04-17T20:36:03.645Z,24.70
2023-04-17T20:38:31.835Z,22.75
2023-04-17T20:41:00.145Z,19.77
2023-04-17T20:43:28.319Z,20.50
2023-04-17T20:45:59.065Z,20.10
2023-04-17T20:48:27.359Z,16.10
2023-04-17T20:50:56.862Z,16.95
2023-04-17T20:53:25.137Z,16.48
2023-04-17T20:55:54.213Z,16.67
2023-04-17T20:58:23.051Z,19.13
2023-04-17T21:01:00.748Z,15.90
2023-04-17T21:03:31.839Z,14.65
2023-04-17T21:06:00.732Z,15.80
2023-04-17T21:08:29.122Z,11.88
2023-04-17T21:10:57.410Z,10.98
2023-04-17T21:13:25.692Z,11.27
2023-04-17T21:15:53.932Z,12.20
2023-04-17T21:18:22.571Z,11.77
2023-04-17T21:20:52.226Z,12.50
2023-04-17T21:23:20.567Z,12.35
2023-04-17T21:25:51.820Z,14.45
2023-04-17T21:28:20.109Z,12.15
2023-04-17T21:30:48.307Z,11.73
2023-04-17T21:33:16.833Z,10.80
2023-04-17T21:35:45.251Z,11.73
2023-04-17T21:38:15.242Z,10.98
2023-04-17T21:40:50.891Z,11.13
2023-04-17T21:43:19.760Z,12.07
2023-04-17T21:45:48.183Z,12.85
2023-04-17T21:48:16.677Z,11.70
2023-04-17T21:50:44.935Z,12.45
2023-04-17T21:53:14.500Z,13.32
2023-04-17T21:55:43.180Z,13.07
2023-04-17T21:58:11.334Z,16.17
2023-04-17T22:00:39.578Z,12.77
2023-04-17T22:03:07.959Z,13.25
2023-04-17T22:05:36.743Z,12.02
2023-04-17T22:08:04.949Z,12.55
2023-04-17T22:10:34.598Z,12.07
2023-04-17T22:13:02.815Z,11.63
2023-04-17T22:15:31.083Z,12.85
2023-04-17T22:17:59.796Z,12.68
2023-04-17T22:20:28.288Z,12.25
2023-04-17T22:22:56.439Z,11.75
2023-04-17T22:25:24.756Z,11.45
2023-04-17T22:27:54.376Z,12.98
2023-04-17T22:30:22.794Z,12.50
2023-04-17T22:32:51.241Z,13.13
2023-04-17T22:35:19.599Z,13.52
2023-04-17T22:37:47.832Z,12.93
2023-04-17T22:40:15.982Z,12.43
2023-04-17T22:42:44.275Z,13.02
2023-04-17T22:45:13.970Z,12.57
2023-04-17T22:47:42.192Z,13.20
2023-04-17T22:50:11.694Z,11.93
2023-04-17T22:52:39.817Z,11.85
2023-04-17T22:55:08.679Z,12.80
2023-04-17T22:57:36.858Z,11.15
2023-04-17T23:00:06.493Z,11.07
2023-04-17T23:02:36.890Z,14.20
2023-04-17T23:05:05.693Z,12.40
2023-04-17T23:07:33.870Z,13.60
2023-04-17T23:10:02.093Z,12.38
2023-04-17T23:12:30.625Z,13.80
2023-04-17T23:14:59.145Z,12.70
2023-04-17T23:17:27.310Z,13.15
2023-04-17T23:19:56.985Z,13.50
2023-04-17T23:22:25.157Z,14.13
2023-04-17T23:24:53.402Z,13.65
2023-04-17T23:27:22.023Z,12.18
2023-04-17T23:29:50.556Z,12.57
2023-04-17T23:32:18.744Z,13.02
2023-04-17T23:34:47.025Z,13.57
2023-04-17T23:37:17.071Z,13.20
2023-04-17T23:39:45.311Z,11.88
2023-04-17T23:42:14.150Z,10.93
2023-04-17T23:44:42.486Z,11.30
2023-04-17T23:47:11.222Z,11.73
2023-04-17T23:49:39.561Z,14.85
2023-04-17T23:52:07.719Z,11.55
2023-04-17T23:54:37.470Z,11.77
2023-04-17T23:57:06.017Z,10.60
2023-04-17T23:59:34.300Z,13.57
